createdAt,value
2023-04-29T00:01:32.364Z,19.00
2023-04-29T00:03:59.793Z,19.10
2023-04-29T00:06:28.629Z,19.10
2023-04-29T00:08:56.089Z,19.10
2023-04-29T00:11:23.619Z,19.00
2023-04-29T00:13:50.915Z,18.90
2023-04-29T00:16:18.819Z,18.90
2023-04-29T00:18:46.269Z,18.80
2023-04-29T00:21:13.678Z,18.70
2023-04-29T00:23:41.156Z,18.60
2023-04-29T00:26:08.692Z,18.60
2023-04-29T00:28:36.483Z,18.50
2023-04-29T00:31:04.004Z,18.50
2023-04-29T00:33:31.736Z,18.40
2023-04-29T00:35:59.182Z,18.40
2023-04-29T00:38:26.957Z,18.30
2023-04-29T00:40:55.826Z,18.30
2023-04-29T00:43:23.141Z,18.20
2023-04-29T00:45:51.239Z,18.20
2023-04-29T00:48:18.921Z,18.20
2023-04-29T00:50:46.346Z,18.20
2023-04-29T00:53:14.561Z,18.20
2023-04-29T00:55:43.227Z,18.30
2023-04-29T00:58:12.017Z,18.20
2023-04-29T01:00:39.680Z,18.20
2023-04-29T01:03:08.191Z,18.20
2023-04-29T01:05:35.728Z,18.20
2023-04-29T01:08:06.701Z,18.20
2023-04-29T01:10:42.076Z,18.30
2023-04-29T01:13:18.187Z,18.20
2023-04-29T01:15:59.228Z,18.20
2023-04-29T01:18:32.077Z,18.30
2023-04-29T01:21:00.997Z,18.30
2023-04-29T01:23:29.360Z,18.30
2023-04-29T01:25:58.105Z,18.30
2023-04-29T01:28:43.235Z,18.30
2023-04-29T01:31:32.838Z,18.30
2023-04-29T01:34:13.339Z,18.30
2023-04-29T01:36:49.399Z,18.30
2023-04-29T01:39:31.432Z,18.30
2023-04-29T01:42:15.101Z,18.30
2023-04-29T01:44:44.269Z,18.30
2023-04-29T01:47:15.045Z,18.30
2023-04-29T01:49:47.498Z,18.30
2023-04-29T01:52:14.898Z,18.30
2023-04-29T01:54:49.162Z,18.20
2023-04-29T01:57:17.303Z,18.20
2023-04-29T01:59:46.299Z,18.20
2023-04-29T02:02:33.615Z,18.20
2023-04-29T02:05:11.350Z,18.20
2023-04-29T02:07:44.837Z,18.20
2023-04-29T02:10:12.518Z,18.20
2023-04-29T02:12:42.359Z,18.20
2023-04-29T02:15:10.340Z,18.20
2023-04-29T02:17:37.610Z,18.30
2023-04-29T02:20:05.301Z,18.30
2023-04-29T02:22:32.713Z,18.30
2023-04-29T02:25:00.342Z,18.30
2023-04-29T02:27:27.722Z,18.30
2023-04-29T02:29:55.132Z,18.30
2023-04-29T02:32:22.492Z,18.30
2023-04-29T02:34:50.039Z,18.20
2023-04-29T02:37:17.555Z,18.20
2023-04-29T02:39:47.229Z,18.20
2023-04-29T02:42:14.563Z,18.20
2023-04-29T02:44:42.779Z,18.20
2023-04-29T02:47:10.248Z,18.10
2023-04-29T02:49:40.254Z,18.20
2023-04-29T02:52:07.683Z,18.20
2023-04-29T02:54:36.680Z,18.20
2023-04-29T02:57:04.113Z,18.20
2023-04-29T02:59:31.601Z,18.20
2023-04-29T03:01:58.807Z,18.20
2023-04-29T03:04:26.361Z,18.20
2023-04-29T03:06:57.224Z,18.10
2023-04-29T03:09:26.915Z,18.20
2023-04-29T03:11:54.229Z,18.20
2023-04-29T03:14:21.866Z,18.20
2023-04-29T03:16:50.611Z,18.20
2023-04-29T03:19:18.311Z,18.30
2023-04-29T03:21:45.712Z,18.30
2023-04-29T03:24:13.495Z,18.30
2023-04-29T03:26:43.050Z,18.30
2023-04-29T03:29:10.709Z,18.30
2023-04-29T03:31:38.091Z,18.20
2023-04-29T03:34:05.576Z,18.20
2023-04-29T03:36:36.348Z,18.20
2023-04-29T03:39:07.415Z,18.10
2023-04-29T03:41:34.936Z,18.10
2023-04-29T03:44:02.640Z,18.00
2023-04-29T03:46:30.388Z,18.00
2023-04-29T03:48:57.986Z,18.00
2023-04-29T03:51:26.208Z,18.00
2023-04-29T03:54:00.880Z,17.90
2023-04-29T03:56:28.584Z,17.90
2023-04-29T03:58:56.009Z,17.90
2023-04-29T04:01:26.198Z,17.90
2023-04-29T04:03:53.932Z,17.80
2023-04-29T04:06:21.474Z,17.80
2023-04-29T04:08:49.802Z,17.80
2023-04-29T04:11:21.315Z,17.80
2023-04-29T04:13:55.151Z,17.80
2023-04-29T04:16:22.689Z,17.80
2023-04-29T04:18:49.955Z,17.90
2023-04-29T04:21:17.424Z,17.90
2023-04-29T04:23:49.944Z,18.00
2023-04-29T04:26:21.844Z,18.00
2023-04-29T04:28:59.614Z,18.10
2023-04-29T04:31:34.598Z,18.10
2023-04-29T04:34:02.379Z,18.00
2023-04-29T04:36:32.765Z,18.00
2023-04-29T04:39:00.944Z,17.90
2023-04-29T04:41:31.690Z,17.90
2023-04-29T04:43:59.608Z,17.90
2023-04-29T04:46:28.367Z,17.80
2023-04-29T04:49:03.921Z,17.80
2023-04-29T04:51:33.690Z,17.90
2023-04-29T04:54:01.210Z,17.90
2023-04-29T04:56:30.898Z,17.80
2023-04-29T04:58:58.173Z,17.80
2023-04-29T05:01:25.657Z,17.70
2023-04-29T05:03:53.566Z,17.70
2023-04-29T05:06:21.215Z,17.70
2023-04-29T05:08:49.766Z,17.70
2023-04-29T05:11:18.819Z,17.60
2023-04-29T05:13:53.008Z,17.50
2023-04-29T05:16:20.722Z,17.40
2023-04-29T05:18:49.071Z,17.40
2023-04-29T05:21:17.872Z,17.40
2023-04-29T05:23:46.296Z,17.40
2023-04-29T05:26:13.753Z,17.40
2023-04-29T05:28:41.461Z,17.40
2023-04-29T05:31:09.952Z,17.40
2023-04-29T05:33:37.981Z,17.40
2023-04-29T05:36:06.809Z,17.40
2023-04-29T05:38:34.411Z,17.40
2023-04-29T05:41:05.157Z,17.50
2023-04-29T05:43:33.100Z,17.50
2023-04-29T05:46:01.710Z,17.50
2023-04-29T05:48:30.008Z,17.50
2023-04-29T05:50:57.968Z,17.60
2023-04-29T05:53:25.784Z,17.60
2023-04-29T05:55:53.600Z,17.60
2023-04-29T05:58:22.195Z,17.70
2023-04-29T06:00:50.587Z,17.80
2023-04-29T06:03:22.659Z,17.80
2023-04-29T06:05:58.807Z,17.90
2023-04-29T06:08:28.222Z,17.90
2023-04-29T06:11:05.575Z,17.90
2023-04-29T06:13:33.521Z,18.00
2023-04-29T06:16:00.919Z,18.00
2023-04-29T06:18:32.884Z,18.00
2023-04-29T06:21:00.652Z,18.10
2023-04-29T06:23:27.967Z,18.20
2023-04-29T06:25:56.517Z,18.30
2023-04-29T06:28:23.848Z,18.30
2023-04-29T06:30:51.352Z,18.40
2023-04-29T06:33:19.929Z,18.40
2023-04-29T06:35:47.551Z,18.40
2023-04-29T06:38:16.401Z,18.40
2023-04-29T06:40:45.406Z,18.50
2023-04-29T06:43:32.542Z,18.50
2023-04-29T06:46:01.757Z,18.50
2023-04-29T06:48:36.202Z,18.50
2023-04-29T06:51:05.091Z,18.50
2023-04-29T06:53:36.550Z,18.50
2023-04-29T06:56:03.990Z,18.60
2023-04-29T06:58:31.338Z,18.70
2023-04-29T07:00:58.733Z,18.70
2023-04-29T07:03:26.163Z,18.70
2023-04-29T07:05:55.063Z,18.80
2023-04-29T07:08:24.128Z,18.80
2023-04-29T07:10:56.080Z,18.80
2023-04-29T07:13:25.258Z,18.80
2023-04-29T07:15:52.548Z,18.80
2023-04-29T07:18:20.271Z,18.90
2023-04-29T07:20:48.308Z,19.00
2023-04-29T07:23:15.916Z,19.00
2023-04-29T07:25:43.271Z,19.10
2023-04-29T07:28:10.670Z,19.10
2023-04-29T07:30:38.019Z,19.20
2023-04-29T07:33:05.682Z,19.20
2023-04-29T07:35:33.357Z,19.20
2023-04-29T07:38:01.314Z,19.20
2023-04-29T07:40:31.324Z,19.20
2023-04-29T07:42:58.977Z,19.20
2023-04-29T07:45:26.313Z,19.20
2023-04-29T07:47:53.834Z,19.20
2023-04-29T07:50:21.345Z,19.10
2023-04-29T07:52:48.666Z,19.00
2023-04-29T07:55:18.145Z,19.00
2023-04-29T07:57:45.615Z,19.00
2023-04-29T08:00:13.289Z,19.10
2023-04-29T08:02:43.410Z,19.10
2023-04-29T08:05:14.109Z,19.10
2023-04-29T08:07:41.774Z,19.10
2023-04-29T08:10:09.806Z,19.10
2023-04-29T08:12:38.266Z,19.10
2023-04-29T08:15:07.771Z,19.10
2023-04-29T08:17:37.432Z,19.20
2023-04-29T08:20:05.268Z,19.20
2023-04-29T08:22:32.816Z,19.20
2023-04-29T08:25:00.263Z,19.20
2023-04-29T08:27:27.695Z,19.30
2023-04-29T08:29:56.204Z,19.30
2023-04-29T08:32:23.778Z,19.30
2023-04-29T08:34:51.682Z,19.40
2023-04-29T08:37:20.789Z,19.40
2023-04-29T08:39:48.215Z,19.40
2023-04-29T08:42:16.794Z,19.40
2023-04-29T08:44:44.658Z,19.40
2023-04-29T08:47:14.308Z,19.30
2023-04-29T08:49:42.456Z,19.30
2023-04-29T08:52:09.825Z,19.40
2023-04-29T08:54:37.204Z,19.40
2023-04-29T08:57:05.721Z,19.40
2023-04-29T08:59:33.265Z,19.40
2023-04-29T09:02:01.184Z,19.40
2023-04-29T09:04:42.093Z,19.40
2023-04-29T09:07:13.006Z,19.40
2023-04-29T09:09:42.138Z,19.40
2023-04-29T09:12:09.542Z,19.30
2023-04-29T09:14:37.124Z,19.20
2023-04-29T09:17:04.444Z,19.30
2023-04-29T09:19:34.247Z,19.20
2023-04-29T09:22:03.515Z,19.30
2023-04-29T09:24:32.093Z,19.30
2023-04-29T09:27:00.661Z,19.30
2023-04-29T09:29:28.088Z,19.40
2023-04-29T09:31:56.484Z,19.40
2023-04-29T09:34:26.894Z,19.50
2023-04-29T09:36:59.184Z,19.50
2023-04-29T09:39:26.703Z,19.50
2023-04-29T09:42:02.932Z,19.60
2023-04-29T09:44:34.641Z,19.70
2023-04-29T09:47:05.241Z,19.80
2023-04-29T09:49:37.496Z,19.80
2023-04-29T09:52:07.457Z,19.90
2023-04-29T09:54:36.795Z,19.90
2023-04-29T09:57:06.166Z,19.90
2023-04-29T09:59:36.434Z,20.00
2023-04-29T10:02:09.876Z,20.00
2023-04-29T10:04:40.265Z,20.10
2023-04-29T10:07:09.469Z,20.10
2023-04-29T10:09:40.376Z,20.10
2023-04-29T10:12:08.657Z,20.10
2023-04-29T10:14:45.716Z,20.20
2023-04-29T10:17:21.507Z,20.20
2023-04-29T10:19:59.693Z,20.30
2023-04-29T10:22:34.031Z,20.30
2023-04-29T10:25:03.760Z,20.50
2023-04-29T10:27:32.675Z,20.60
2023-04-29T10:30:02.600Z,20.70
2023-04-29T10:32:39.937Z,20.80
2023-04-29T10:35:20.349Z,20.90
2023-04-29T10:37:49.716Z,21.10
2023-04-29T10:40:31.626Z,21.20
2023-04-29T10:42:59.751Z,21.30
2023-04-29T10:45:31.322Z,21.30
2023-04-29T10:48:01.864Z,21.30
2023-04-29T10:50:30.261Z,21.30
2023-04-29T10:52:58.871Z,21.30
2023-04-29T10:55:26.519Z,21.30
2023-04-29T10:57:57.422Z,21.40
2023-04-29T11:00:27.373Z,21.50
2023-04-29T11:02:55.770Z,21.50
2023-04-29T11:05:27.856Z,21.50
2023-04-29T11:08:13.222Z,21.60
2023-04-29T11:10:43.058Z,21.70
2023-04-29T11:13:13.858Z,21.80
2023-04-29T11:15:41.288Z,21.90
2023-04-29T11:18:11.884Z,21.90
2023-04-29T11:20:42.517Z,21.90
2023-04-29T11:23:09.895Z,21.90
2023-04-29T11:25:39.584Z,22.20
2023-04-29T11:28:08.301Z,22.30
2023-04-29T11:30:37.229Z,22.40
2023-04-29T11:33:04.642Z,22.50
2023-04-29T11:35:32.244Z,22.60
2023-04-29T11:38:00.900Z,22.60
2023-04-29T11:40:28.420Z,22.60
2023-04-29T11:42:55.741Z,22.60
2023-04-29T11:45:23.073Z,22.70
2023-04-29T11:47:51.248Z,22.90
2023-04-29T11:50:20.963Z,23.00
2023-04-29T11:52:49.661Z,23.00
2023-04-29T11:55:17.219Z,23.00
2023-04-29T11:57:44.642Z,23.10
2023-04-29T12:00:13.859Z,23.20
2023-04-29T12:02:47.031Z,23.10
2023-04-29T12:05:17.371Z,23.20
2023-04-29T12:07:45.546Z,23.20
2023-04-29T12:10:13.350Z,23.30
2023-04-29T12:12:43.172Z,23.40
2023-04-29T12:15:11.188Z,23.50
2023-04-29T12:17:39.702Z,23.60
2023-04-29T12:20:10.882Z,23.60
2023-04-29T12:22:38.694Z,23.70
2023-04-29T12:25:08.092Z,23.70
2023-04-29T12:27:37.212Z,23.70
2023-04-29T12:30:09.948Z,23.60
2023-04-29T12:32:38.532Z,23.60
2023-04-29T12:35:06.304Z,23.60
2023-04-29T12:37:35.561Z,23.60
2023-04-29T12:40:02.843Z,23.60
2023-04-29T12:42:33.113Z,23.80
2023-04-29T12:45:00.598Z,23.90
2023-04-29T12:47:34.985Z,24.00
2023-04-29T12:50:03.105Z,24.00
2023-04-29T12:52:30.457Z,24.00
2023-04-29T12:54:58.307Z,24.00
2023-04-29T12:57:26.563Z,24.20
2023-04-29T12:59:54.006Z,24.40
2023-04-29T13:02:21.447Z,24.60
2023-04-29T13:04:49.112Z,24.70
2023-04-29T13:07:16.526Z,24.80
2023-04-29T13:09:43.857Z,24.70
2023-04-29T13:12:11.097Z,24.70
2023-04-29T13:14:38.611Z,24.60
2023-04-29T13:17:06.521Z,24.60
2023-04-29T13:19:49.636Z,24.60
2023-04-29T13:22:19.080Z,24.40
2023-04-29T13:24:47.011Z,24.30
2023-04-29T13:27:14.601Z,24.50
2023-04-29T13:29:41.858Z,24.60
2023-04-29T13:32:09.230Z,24.70
2023-04-29T13:34:36.818Z,24.70
2023-04-29T13:37:04.029Z,24.70
2023-04-29T13:39:31.702Z,24.60
2023-04-29T13:41:59.823Z,24.40
2023-04-29T13:44:34.395Z,24.40
2023-04-29T13:47:13.602Z,24.40
2023-04-29T13:53:09.970Z,24.50
2023-04-29T13:55:44.014Z,24.50
2023-04-29T14:05:25.892Z,24.60
2023-04-29T14:07:53.141Z,24.70
2023-04-29T14:10:20.679Z,24.60
2023-04-29T14:12:48.864Z,24.40
2023-04-29T14:15:17.024Z,24.20
2023-04-29T14:17:44.955Z,24.10
2023-04-29T14:20:12.788Z,24.00
2023-04-29T14:22:39.904Z,23.90
2023-04-29T14:25:08.497Z,24.00
2023-04-29T14:27:36.946Z,24.00
2023-04-29T14:30:05.036Z,24.10
2023-04-29T14:32:32.240Z,24.20
2023-04-29T14:34:59.527Z,24.30
2023-04-29T14:37:26.982Z,24.40
2023-04-29T14:39:54.433Z,24.50
2023-04-29T14:42:21.611Z,24.70
2023-04-29T14:44:48.762Z,24.60
2023-04-29T14:47:15.903Z,24.50
2023-04-29T14:49:43.275Z,24.40
2023-04-29T14:52:10.512Z,24.30
2023-04-29T14:54:37.646Z,24.20
2023-04-29T14:57:04.920Z,24.10
2023-04-29T14:59:32.287Z,24.10
2023-04-29T15:02:03.573Z,24.00
2023-04-29T15:04:30.992Z,24.10
2023-04-29T15:06:58.500Z,24.20
2023-04-29T15:09:26.845Z,24.30
2023-04-29T15:11:54.074Z,24.30
2023-04-29T15:14:21.368Z,24.30
2023-04-29T15:16:49.113Z,24.20
2023-04-29T15:19:16.938Z,24.20
2023-04-29T15:21:44.042Z,24.10
2023-04-29T15:24:12.132Z,24.10
2023-04-29T15:26:39.408Z,24.10
2023-04-29T15:29:06.645Z,24.10
2023-04-29T15:31:33.938Z,24.20
2023-04-29T15:34:01.304Z,24.20
2023-04-29T15:36:30.349Z,24.20
2023-04-29T15:38:58.236Z,24.10
2023-04-29T15:41:26.253Z,24.00
2023-04-29T15:43:54.789Z,24.00
2023-04-29T15:46:22.134Z,23.90
2023-04-29T15:48:49.579Z,23.80
2023-04-29T15:51:16.748Z,23.60
2023-04-29T15:53:44.712Z,23.60
2023-04-29T15:56:12.224Z,23.60
2023-04-29T15:58:39.476Z,23.50
2023-04-29T16:01:06.737Z,23.50
2023-04-29T16:03:34.467Z,23.50
2023-04-29T16:06:01.741Z,23.40
2023-04-29T16:08:29.033Z,23.30
2023-04-29T16:10:56.278Z,23.40
2023-04-29T16:13:23.516Z,23.30
2023-04-29T16:15:50.698Z,23.20
2023-04-29T16:18:18.076Z,23.20
2023-04-29T16:20:45.581Z,23.10
2023-04-29T16:23:12.860Z,23.10
2023-04-29T16:25:42.007Z,23.10
2023-04-29T16:28:09.142Z,23.00
2023-04-29T16:30:36.790Z,22.90
2023-04-29T16:33:04.385Z,22.90
2023-04-29T16:35:31.767Z,22.90
2023-04-29T16:37:59.182Z,22.80
2023-04-29T16:40:27.916Z,22.70
2023-04-29T16:42:56.962Z,22.70
2023-04-29T16:45:25.484Z,22.60
2023-04-29T16:47:53.326Z,22.60
2023-04-29T16:50:20.516Z,22.60
2023-04-29T16:52:47.784Z,22.50
2023-04-29T16:55:15.076Z,22.50
2023-04-29T16:57:42.415Z,22.50
2023-04-29T17:00:11.218Z,22.50
2023-04-29T17:02:40.556Z,22.50
2023-04-29T17:05:09.151Z,22.50
2023-04-29T17:07:36.512Z,22.50
2023-04-29T17:10:05.117Z,22.50
2023-04-29T17:12:33.241Z,22.50
2023-04-29T17:15:00.586Z,22.50
2023-04-29T17:17:28.041Z,22.50
2023-04-29T17:19:55.784Z,22.40
2023-04-29T17:22:23.518Z,22.40
2023-04-29T17:24:51.360Z,22.40
2023-04-29T17:27:18.614Z,22.40
2023-04-29T17:29:46.264Z,22.40
2023-04-29T17:32:17.334Z,22.40
2023-04-29T17:34:44.664Z,22.30
2023-04-29T17:37:11.884Z,22.30
2023-04-29T17:39:39.235Z,22.20
2023-04-29T17:42:06.827Z,22.20
2023-04-29T17:44:34.148Z,22.20
2023-04-29T17:47:01.348Z,22.10
2023-04-29T17:49:28.538Z,22.10
2023-04-29T17:51:55.801Z,22.00
2023-04-29T17:54:23.160Z,22.00
2023-04-29T17:56:50.279Z,22.00
2023-04-29T17:59:17.497Z,21.90
2023-04-29T18:01:44.850Z,21.90
2023-04-29T18:04:12.586Z,21.80
2023-04-29T18:06:40.210Z,21.70
2023-04-29T18:09:07.644Z,21.70
2023-04-29T18:11:34.760Z,21.70
2023-04-29T18:14:02.008Z,21.60
2023-04-29T18:16:30.022Z,21.60
2023-04-29T18:18:57.387Z,21.60
2023-04-29T18:21:27.506Z,21.60
2023-04-29T18:23:56.241Z,21.60
2023-04-29T18:26:23.923Z,21.60
2023-04-29T18:28:51.327Z,21.60
2023-04-29T18:31:20.186Z,21.60
2023-04-29T18:33:47.347Z,21.70
2023-04-29T18:36:14.715Z,21.70
2023-04-29T18:38:42.065Z,21.70
2023-04-29T18:41:09.358Z,21.70
2023-04-29T18:43:36.676Z,21.60
2023-04-29T18:46:04.084Z,21.60
2023-04-29T18:48:31.503Z,21.60
2023-04-29T18:51:00.461Z,21.60
2023-04-29T18:53:27.676Z,21.60
2023-04-29T18:55:54.911Z,21.60
2023-04-29T18:58:22.352Z,21.60
2023-04-29T19:00:49.573Z,21.50
2023-04-29T19:03:16.818Z,21.50
2023-04-29T19:05:44.503Z,21.40
2023-04-29T19:08:11.630Z,21.30
2023-04-29T19:10:38.864Z,21.30
2023-04-29T19:13:06.218Z,21.30
2023-04-29T19:15:33.602Z,21.20
2023-04-29T19:18:00.819Z,21.20
2023-04-29T19:20:28.233Z,21.30
2023-04-29T19:22:55.464Z,21.20
2023-04-29T19:25:25.946Z,21.10
2023-04-29T19:27:53.592Z,21.00
2023-04-29T19:30:20.892Z,20.90
2023-04-29T19:32:48.974Z,20.80
2023-04-29T19:35:16.337Z,20.80
2023-04-29T19:37:44.462Z,20.80
2023-04-29T19:40:12.158Z,20.80
2023-04-29T19:42:40.072Z,20.80
2023-04-29T19:45:08.457Z,20.60
2023-04-29T19:47:36.422Z,20.60
2023-04-29T19:50:04.786Z,20.50
2023-04-29T19:52:32.158Z,20.40
2023-04-29T19:54:59.440Z,20.30
2023-04-29T19:57:27.843Z,20.30
2023-04-29T19:59:55.367Z,20.30
2023-04-29T20:02:22.861Z,20.30
2023-04-29T20:04:50.153Z,20.20
2023-04-29T20:07:17.258Z,20.10
2023-04-29T20:09:45.689Z,20.10
2023-04-29T20:12:12.978Z,20.00
2023-04-29T20:14:40.214Z,19.90
2023-04-29T20:17:07.765Z,19.90
2023-04-29T20:19:35.063Z,19.80
2023-04-29T20:22:02.188Z,19.80
2023-04-29T20:24:29.568Z,19.70
2023-04-29T20:26:56.853Z,19.60
2023-04-29T20:29:24.948Z,19.60
2023-04-29T20:31:52.195Z,19.50
2023-04-29T20:34:19.534Z,19.50
2023-04-29T20:36:46.847Z,19.50
2023-04-29T20:39:14.393Z,19.50
2023-04-29T20:41:41.818Z,19.60
2023-04-29T20:44:09.146Z,19.60
2023-04-29T20:46:36.447Z,19.60
2023-04-29T20:49:04.996Z,19.70
2023-04-29T20:51:32.911Z,19.70
2023-04-29T20:54:00.238Z,19.70
2023-04-29T20:56:27.960Z,19.70
2023-04-29T20:58:57.569Z,19.80
2023-04-29T21:01:24.953Z,19.70
2023-04-29T21:03:52.394Z,19.70
2023-04-29T21:06:19.668Z,19.70
2023-04-29T21:08:47.074Z,19.70
2023-04-29T21:11:14.332Z,19.60
2023-04-29T21:13:41.560Z,19.60
2023-04-29T21:16:09.769Z,19.60
2023-04-29T21:18:37.155Z,19.60
2023-04-29T21:21:04.440Z,19.60
2023-04-29T21:23:31.627Z,19.60
2023-04-29T21:25:58.787Z,19.50
2023-04-29T21:28:26.081Z,19.40
2023-04-29T21:30:53.428Z,19.40
2023-04-29T21:33:21.014Z,19.30
2023-04-29T21:35:51.439Z,19.30
2023-04-29T21:38:19.133Z,19.30
2023-04-29T21:40:48.123Z,19.30
2023-04-29T21:43:16.928Z,19.30
2023-04-29T21:45:45.610Z,19.20
2023-04-29T21:48:15.986Z,19.10
2023-04-29T21:50:44.058Z,18.90
2023-04-29T21:53:13.784Z,18.90
2023-04-29T21:55:42.886Z,18.80
2023-04-29T21:58:11.033Z,18.70
2023-04-29T22:00:40.793Z,18.70
2023-04-29T22:03:09.435Z,18.60
2023-04-29T22:05:37.835Z,18.50
2023-04-29T22:08:07.495Z,18.50
2023-04-29T22:10:35.035Z,18.40
2023-04-29T22:13:02.222Z,18.30
2023-04-29T22:15:29.897Z,18.30
2023-04-29T22:17:57.916Z,18.40
2023-04-29T22:20:25.867Z,18.40
2023-04-29T22:22:53.067Z,18.40
2023-04-29T22:25:22.037Z,18.40
2023-04-29T22:27:50.380Z,18.30
2023-04-29T22:30:18.140Z,18.30
2023-04-29T22:32:45.708Z,18.20
2023-04-29T22:35:13.060Z,18.20
2023-04-29T22:37:41.213Z,18.20
2023-04-29T22:40:09.486Z,18.20
2023-04-29T22:42:36.689Z,18.20
2023-04-29T22:45:04.296Z,18.10
2023-04-29T22:47:31.610Z,18.10
2023-04-29T22:49:58.859Z,18.10
2023-04-29T22:52:27.472Z,18.10
2023-04-29T22:54:54.800Z,18.20
2023-04-29T22:57:21.893Z,18.20
2023-04-29T22:59:49.331Z,18.20
2023-04-29T23:02:16.521Z,18.30
2023-04-29T23:04:43.709Z,18.20
2023-04-29T23:07:10.970Z,18.20
2023-04-29T23:09:38.299Z,18.20
2023-04-29T23:12:05.550Z,18.20
2023-04-29T23:14:32.800Z,18.10
2023-04-29T23:16:59.945Z,18.10
2023-04-29T23:19:27.185Z,18.00
2023-04-29T23:21:54.281Z,17.90
2023-04-29T23:24:21.467Z,17.80
2023-04-29T23:26:49.542Z,17.80
2023-04-29T23:29:16.909Z,17.90
2023-04-29T23:31:44.755Z,17.90
2023-04-29T23:34:13.237Z,17.90
2023-04-29T23:36:40.537Z,18.00
2023-04-29T23:39:07.840Z,17.90
2023-04-29T23:41:35.070Z,17.90
2023-04-29T23:44:02.563Z,17.90
2023-04-29T23:46:30.974Z,17.90
2023-04-29T23:48:58.249Z,17.80
2023-04-29T23:51:26.382Z,17.80
2023-04-29T23:53:53.734Z,17.80
2023-04-29T23:56:20.827Z,17.70
2023-04-29T23:58:48.095Z,17.70
